Blackstone, Massachusetts
Current Conditions -  °F | °C
As of 5:35 AM on Monday 26 Jan 2015 (Local Time) from KSFZ Reporting Station
Scattered Clouds Scattered Clouds  
Wind Chill: -2°   Ceiling: Unl
Heat Index: 12°   Visibility: 10mi
Dew Point: -4°   Wind: 12mph
Humidity: 48%   Direction: 20°NNE
Pressure: 30.05"   Gusts: NA
Location:  42.02°N, 71.54°W
Report Text: KSFZ 261035Z 02010KT 10SM SCT120 M11/M20 A3005 RMK AO1
Loading
Personal Weather Stations






























Interactive Weather Map New forecast layout! Learn more

10-Day Weather Forecast

Advertisements
Track Severe Weather on mobile